Time;durP1;ratioP1;P1;durP2;ratioP2;P2;SDS_P1;SDS_P2;PMS_P1;PMS_P2;Temp;Humidity;BMP_temperature;BMP_pressure;BME280_temperature;BME280_humidity;BME280_pressure;Samples;Min_cycle;Max_cycle;Signal;HPM_P1;HPM_P2
2022/12/23 00:01:26;;;;;;;54.22;14.45;;;12.10;99.90;;;12.38;100.00;100219.44;5054854;28;20037;-75
2022/12/23 00:03:58;;;;;;;58.83;15.20;;;12.10;99.90;;;12.04;100.00;100189.28;5054962;28;20041;-75
2022/12/23 00:06:27;;;;;;;50.30;14.68;;;12.10;99.90;;;12.32;100.00;100230.19;5055059;28;20053;-74
2022/12/23 00:08:56;;;;;;;50.47;15.27;;;12.00;99.90;;;12.40;100.00;100231.78;5053735;28;20140;-75
2022/12/23 00:11:26;;;;;;;55.17;14.70;;;12.10;99.90;;;12.48;100.00;100239.56;5054922;28;20481;-75
2022/12/23 00:16:50;;;;;;;52.53;15.77;;;12.20;99.90;;;12.44;100.00;100216.66;5054595;28;20072;-75
2022/12/23 00:19:19;;;;;;;53.17;14.77;;;12.30;99.90;;;12.59;100.00;100242.84;5054602;28;20045;-75
2022/12/23 00:21:48;;;;;;;45.30;14.38;;;12.30;99.90;;;12.48;100.00;100219.22;5054749;28;20045;-75
2022/12/23 00:24:16;;;;;;;46.33;15.52;;;12.30;99.90;;;12.61;100.00;100247.22;5054695;28;20518;-75
2022/12/23 00:26:44;;;;;;;67.78;16.10;;;12.30;99.90;;;12.65;100.00;100245.34;5054990;28;20099;-74
2022/12/23 00:29:13;;;;;;;55.63;14.82;;;12.40;99.90;;;12.63;100.00;100245.38;5054397;28;20044;-74
2022/12/23 00:31:41;;;;;;;51.42;14.85;;;12.40;99.90;;;12.72;100.00;100254.06;5054208;28;20048;-74
2022/12/23 00:34:12;;;;;;;51.35;15.00;;;12.40;99.90;;;12.68;100.00;100251.44;5054335;28;20084;-74
2022/12/23 00:36:40;;;;;;;54.88;16.50;;;12.50;99.90;;;12.69;100.00;100242.59;5054176;28;20410;-74
2022/12/23 00:44:43;;;;;;;50.13;14.07;;;12.50;99.90;;;12.75;100.00;100246.00;5053116;28;20474;-75
2022/12/23 00:49:40;;;;;;;53.45;15.95;;;12.50;99.90;;;12.78;100.00;100251.22;5054075;28;20068;-74
2022/12/23 00:50:00;;;;;;;44.97;15.90;;;12.50;99.90;;;12.77;100.00;100247.72;5054115;28;20052;-74
2022/12/23 00:52:28;;;;;;;49.05;14.90;;;12.50;99.90;;;12.81;100.00;100260.03;5069475;28;20044;-74
2022/12/23 00:54:57;;;;;;;47.67;15.32;;;12.60;99.90;;;12.79;100.00;100245.03;5054089;28;20059;-74
2022/12/23 00:57:25;;;;;;;39.90;13.98;;;12.60;99.90;;;12.83;100.00;100252.91;5054417;28;20053;-74
2022/12/23 00:59:53;;;;;;;42.80;14.60;;;12.60;99.90;;;12.81;100.00;100256.47;5053742;28;20494;-74
2022/12/23 01:07:57;;;;;;;32.80;12.00;;;12.50;99.90;;;12.89;100.00;100275.75;5053926;28;20499;-73
2022/12/23 01:10:25;;;;;;;31.17;11.77;;;12.60;99.90;;;12.79;100.00;100277.75;5053606;28;20494;-74
2022/12/23 01:12:53;;;;;;;32.33;13.50;;;12.50;99.90;;;12.62;100.00;100248.06;5053509;28;20044;-74
2022/12/23 01:15:22;;;;;;;37.67;13.88;;;12.50;99.90;;;12.64;100.00;100259.50;5053773;28;20482;-73
2022/12/23 01:17:50;;;;;;;33.72;13.23;;;12.50;99.90;;;12.58;100.00;100279.09;5053705;28;20430;-73
2022/12/23 01:20:20;;;;;;;24.95;11.18;;;12.30;99.90;;;12.49;100.00;100278.41;5053654;28;20355;-73
2022/12/23 01:22:49;;;;;;;23.75;12.65;;;12.20;99.90;;;12.38;100.00;100286.63;5053420;28;20486;-74
2022/12/23 01:25:17;;;;;;;25.83;13.32;;;12.10;99.90;;;12.48;100.00;100287.28;5053514;28;20494;-74
2022/12/23 01:27:46;;;;;;;24.58;13.32;;;12.20;99.90;;;12.46;100.00;100294.41;5053562;28;20380;-74
2022/12/23 01:30:14;;;;;;;29.73;14.02;;;12.20;99.90;;;12.50;100.00;100293.44;5053218;28;20047;-74
2022/12/23 01:32:43;;;;;;;28.23;12.20;;;12.20;99.90;;;12.50;100.00;100296.94;5053131;28;20475;-76
2022/12/23 01:35:11;;;;;;;24.92;13.55;;;12.30;99.90;;;12.41;100.00;100291.84;5053760;28;20048;-74
2022/12/23 01:37:41;;;;;;;28.02;12.93;;;12.20;99.90;;;12.49;100.00;100310.25;5053229;28;20043;-73
2022/12/23 01:40:10;;;;;;;19.83;11.10;;;12.20;99.90;;;12.39;100.00;100314.00;5053419;28;20041;-72
2022/12/23 01:42:44;;;;;;;19.83;11.57;;;12.20;99.90;;;12.29;100.00;100323.06;5052964;28;20466;-74
2022/12/23 01:45:19;;;;;;;19.33;13.07;;;12.10;99.90;;;12.30;100.00;100327.44;5052743;28;20052;-73
2022/12/23 01:47:53;;;;;;;21.27;14.32;;;12.10;99.90;;;12.33;100.00;100319.44;5051926;28;20537;-74
2022/12/23 01:50:28;;;;;;;23.13;15.60;;;12.10;99.90;;;12.14;100.00;100324.22;5053043;28;20041;-73
2022/12/23 01:53:05;;;;;;;23.63;14.30;;;12.00;99.90;;;12.17;100.00;100315.34;5051935;28;20139;-73
2022/12/23 01:55:39;;;;;;;17.30;12.98;;;12.00;99.90;;;12.19;100.00;100318.84;5052872;28;20049;-74
2022/12/23 01:58:12;;;;;;;21.55;13.82;;;12.00;99.90;;;12.12;100.00;100335.75;5053236;28;20132;-74
2022/12/23 02:03:43;;;;;;;18.15;12.55;;;11.80;99.90;;;11.79;100.00;100316.06;5053408;28;20044;-74
2022/12/23 02:09:18;;;;;;;18.98;13.10;;;11.70;99.90;;;12.02;100.00;100336.84;5052813;28;20483;-74
2022/12/23 02:12:31;;;;;;;16.05;12.15;;;11.70;99.90;;;11.95;100.00;100345.81;5052851;28;20045;-73
2022/12/23 02:19:00;;;;;;;14.90;10.93;;;11.70;99.90;;;12.04;100.00;100359.75;5052664;28;20127;-73
2022/12/23 02:22:13;;;;;;;14.07;11.13;;;11.80;99.90;;;12.04;100.00;100369.50;5034599;28;20478;-73
2022/12/23 02:25:34;;;;;;;12.20;10.77;;;11.80;99.90;;;12.05;100.00;100374.78;5049323;28;20064;-74
2022/12/23 02:28:25;;;;;;;14.55;12.05;;;11.70;99.90;;;12.00;100.00;100381.94;5049967;28;20077;-74
2022/12/23 02:31:08;;;;;;;14.68;12.52;;;11.70;99.90;;;12.00;100.00;100381.94;5052985;28;20041;-73
2022/12/23 02:33:48;;;;;;;16.05;12.43;;;11.70;99.90;;;12.10;100.00;100380.00;5051659;28;20080;-73
2022/12/23 02:36:35;;;;;;;13.43;11.70;;;11.80;99.90;;;12.02;100.00;100389.88;5052619;28;20129;-74
2022/12/23 02:39:08;;;;;;;16.48;12.90;;;11.80;99.90;;;12.06;100.00;100391.56;5052556;28;20090;-73
2022/12/23 02:41:45;;;;;;;15.40;13.73;;;11.80;99.90;;;12.18;100.00;100384.25;5052571;28;20135;-74
2022/12/23 02:44:22;;;;;;;17.73;15.00;;;11.90;99.90;;;12.22;100.00;100383.28;5051520;28;20551;-74
2022/12/23 02:46:58;;;;;;;14.75;13.15;;;11.90;99.90;;;12.23;100.00;100384.19;5051543;28;20449;-73
2022/12/23 02:49:32;;;;;;;14.15;12.65;;;12.00;99.90;;;12.21;100.00;100370.94;5052468;28;20052;-73
2022/12/23 02:52:07;;;;;;;16.33;12.80;;;12.10;99.90;;;12.41;100.00;100391.75;5052414;28;20045;-74
2022/12/23 02:54:40;;;;;;;12.57;11.32;;;12.20;99.90;;;12.29;100.00;100389.38;5052977;28;20049;-73
2022/12/23 02:57:11;;;;;;;12.98;11.60;;;12.10;99.90;;;12.37;100.00;100382.09;5056160;28;20055;-73
2022/12/23 02:59:42;;;;;;;;;;;12.20;99.90;;;12.43;100.00;100371.38;5072156;28;20049;-73
2022/12/23 03:02:12;;;;;;;13.40;12.02;;;12.20;99.90;;;12.33;100.00;100365.38;5071912;28;19920;-74
2022/12/23 03:04:41;;;;;;;12.85;11.55;;;12.20;99.90;;;12.39;100.00;100375.00;5056259;28;20075;-74
2022/12/23 03:07:17;;;;;;;13.95;12.55;;;12.20;99.90;;;12.46;100.00;100381.94;5056441;28;20037;-74
2022/12/23 03:09:58;;;;;;;15.73;12.82;;;12.20;99.90;;;12.56;100.00;100384.38;5055934;28;20037;-74
2022/12/23 03:12:41;;;;;;;14.30;12.85;;;12.30;99.90;;;12.65;100.00;100391.28;5055839;28;20041;-72
2022/12/23 03:15:24;;;;;;;15.32;13.82;;;12.40;99.90;;;12.67;100.00;100390.34;5055807;28;20060;-74
2022/12/23 03:18:03;;;;;;;16.90;13.65;;;12.50;99.90;;;12.70;100.00;100389.38;5056311;28;20045;-73
2022/12/23 03:20:42;;;;;;;15.55;14.05;;;12.50;99.90;;;12.66;100.00;100375.31;5055963;28;20055;-74
2022/12/23 03:23:21;;;;;;;16.10;14.38;;;12.60;99.90;;;12.77;100.00;100391.03;5055907;28;20052;-73
2022/12/23 03:25:58;;;;;;;14.15;12.85;;;12.60;99.90;;;12.70;100.00;100402.66;5055587;28;20052;-73
2022/12/23 03:28:34;;;;;;;15.55;13.95;;;12.60;99.90;;;12.86;100.00;100385.50;5055822;28;20055;-74
2022/12/23 03:31:07;;;;;;;14.40;12.90;;;12.70;99.90;;;12.85;100.00;100394.41;5056014;28;20044;-73
2022/12/23 03:33:42;;;;;;;15.75;14.15;;;12.60;99.90;;;12.89;100.00;100393.41;5055677;28;20076;-73
2022/12/23 03:36:15;;;;;;;16.00;14.32;;;12.70;99.90;;;12.91;100.00;100388.94;5054486;28;20045;-73
2022/12/23 03:38:45;;;;;;;15.35;13.65;;;12.70;99.90;;;12.93;100.00;100392.44;5055537;28;20098;-72
2022/12/23 03:41:19;;;;;;;15.73;14.23;;;12.70;99.90;;;12.98;100.00;100395.00;5055510;28;20116;-72
2022/12/23 03:43:54;;;;;;;16.10;14.52;;;12.70;99.90;;;12.87;100.00;100397.91;5055290;28;20446;-73
2022/12/23 03:46:30;;;;;;;16.88;15.10;;;12.70;99.90;;;12.10;100.00;100264.22;5054988;28;20047;-78
2022/12/23 03:49:04;;;;;;;17.95;15.60;;;12.60;99.90;;;12.89;100.00;100404.00;5053542;28;20049;-78
2022/12/23 03:51:39;;;;;;;17.65;15.20;;;12.60;99.90;;;12.79;100.00;100391.00;5054692;28;20127;-77
2022/12/23 03:54:13;;;;;;;15.43;13.93;;;12.60;99.90;;;12.87;100.00;100405.88;5070155;28;20513;-78
2022/12/23 03:56:49;;;;;;;15.63;14.13;;;12.70;99.90;;;12.94;100.00;100412.78;5053171;28;20053;-76
2022/12/23 03:59:21;;;;;;;16.20;14.60;;;12.70;99.90;;;12.89;100.00;100419.94;5070038;28;20045;-78
2022/12/23 04:02:01;;;;;;;15.82;14.18;;;12.70;99.90;;;12.79;100.00;100418.41;5054404;28;20044;-78
2022/12/23 04:04:45;;;;;;;17.25;15.52;;;12.60;99.90;;;12.88;100.00;100423.53;5054894;28;20120;-78
2022/12/23 04:07:18;;;;;;;16.60;14.80;;;12.60;99.90;;;12.89;100.00;100421.75;5069504;28;20544;-78
2022/12/23 04:09:48;;;;;;;16.92;15.32;;;12.70;99.90;;;12.81;100.00;100413.06;5054491;28;20371;-77
2022/12/23 04:12:16;;;;;;;15.63;14.13;;;12.60;99.90;;;12.89;100.00;100417.28;5054321;28;20079;-78
2022/12/23 04:14:47;;;;;;;17.88;15.70;;;12.60;99.90;;;12.84;100.00;100418.28;5069391;28;20049;-78
2022/12/23 04:17:16;;;;;;;17.98;16.27;;;12.60;99.90;;;12.88;100.00;100425.28;5053107;28;20053;-78
2022/12/23 04:19:46;;;;;;;19.13;16.52;;;12.60;99.90;;;12.83;100.00;100428.06;5069302;28;20053;-78
2022/12/23 04:22:16;;;;;;;17.80;16.05;;;12.60;99.90;;;12.81;100.00;100439.59;5054029;28;20072;-78
2022/12/23 04:24:44;;;;;;;16.85;15.07;;;12.60;99.90;;;12.84;100.00;100426.25;5053892;28;20065;-78
2022/12/23 04:27:15;;;;;;;18.45;16.50;;;12.60;99.90;;;12.86;100.00;100429.75;5052926;28;20384;-78
2022/12/23 04:29:43;;;;;;;;;;;12.60;99.90;;;12.86;100.00;100419.13;5053077;28;20516;-78
2022/12/23 04:32:12;;;;;;;17.02;15.32;;;12.60;99.90;;;12.75;100.00;100402.56;5053862;28;20011;-78
2022/12/23 04:34:40;;;;;;;20.27;17.00;;;12.60;99.90;;;12.85;99.91;100415.63;5053770;28;20506;-78
2022/12/23 04:37:10;;;;;;;18.98;16.63;;;12.60;99.90;;;12.85;100.00;100409.44;5054154;28;20041;-78
2022/12/23 04:39:38;;;;;;;18.17;16.15;;;12.60;99.90;;;12.88;100.00;100418.22;5054100;28;20076;-78
2022/12/23 04:42:07;;;;;;;21.45;16.23;;;12.60;99.90;;;12.85;100.00;100415.63;5053648;28;20072;-78
2022/12/23 04:44:35;;;;;;;19.17;17.15;;;12.60;99.90;;;12.85;100.00;100409.44;5053583;28;20079;-78
2022/12/23 04:47:04;;;;;;;18.30;16.38;;;12.60;99.90;;;12.90;100.00;100402.25;5053731;28;20052;-77
2022/12/23 04:49:32;;;;;;;21.58;16.00;;;12.60;99.90;;;12.93;100.00;100403.06;5053721;28;20045;-78
2022/12/23 04:52:01;;;;;;;23.83;16.65;;;12.70;99.90;;;12.84;99.75;100376.72;5053678;28;20044;-77
2022/12/23 04:54:31;;;;;;;23.75;16.60;;;12.70;99.90;;;12.99;99.58;100408.22;5053046;28;20091;-77
2022/12/23 04:56:59;;;;;;;23.03;16.63;;;12.70;99.90;;;13.00;99.44;100410.00;5053942;28;20037;-77
2022/12/23 04:59:27;;;;;;;22.50;17.10;;;12.70;99.90;;;12.92;99.12;100414.59;5053752;28;20422;-77
2022/12/23 05:01:56;;;;;;;21.45;16.35;;;12.70;99.90;;;12.69;99.39;100387.66;5052173;28;20498;-78
2022/12/23 05:04:25;;;;;;;19.48;16.23;;;12.70;99.90;;;12.86;99.34;100413.84;5068675;28;20080;-78
2022/12/23 05:06:53;;;;;;;20.38;16.15;;;12.70;99.90;;;12.54;99.05;100348.19;5053350;28;20049;-77
2022/12/23 05:09:22;;;;;;;19.15;16.17;;;12.70;99.90;;;12.99;99.21;100434.78;5053203;28;20048;-77
2022/12/23 05:11:51;;;;;;;20.35;15.68;;;12.70;99.90;;;12.99;99.20;100428.63;5053498;28;20091;-77
2022/12/23 05:14:20;;;;;;;18.98;14.68;;;12.70;99.90;;;12.99;99.24;100429.47;5052767;28;20043;-78
2022/12/23 05:16:48;;;;;;;19.02;14.38;;;12.70;99.90;;;12.99;99.23;100429.47;5053168;28;20414;-77
2022/12/23 05:19:17;;;;;;;16.17;14.45;;;12.70;99.90;;;12.49;98.83;100342.97;5051997;28;20143;-77
2022/12/23 05:21:45;;;;;;;20.33;14.63;;;12.70;99.90;;;13.01;98.59;100442.69;5053075;28;20049;-77
2022/12/23 05:24:14;;;;;;;15.98;14.27;;;12.70;99.90;;;12.89;98.77;100435.88;5052804;28;20049;-77
2022/12/23 05:26:42;;;;;;;15.65;13.40;;;12.70;99.90;;;12.91;98.87;100450.00;5053239;28;20390;-77
2022/12/23 05:29:16;;;;;;;14.43;12.77;;;12.70;99.90;;;12.79;98.73;100426.38;5052746;28;20044;-78
2022/12/23 05:31:45;;;;;;;15.57;13.30;;;12.70;99.90;;;12.77;98.66;100419.34;5052892;28;20129;-77
2022/12/23 05:34:13;;;;;;;15.05;12.98;;;12.70;99.90;;;12.98;98.80;100446.31;5052462;28;20506;-77
2022/12/23 05:36:42;;;;;;;15.05;13.40;;;12.70;99.90;;;12.97;98.64;100439.25;5052500;28;20056;-78
2022/12/23 05:39:10;;;;;;;16.45;12.75;;;12.70;99.90;;;12.93;98.36;100429.59;5052537;28;20067;-77
2022/12/23 05:41:39;;;;;;;13.25;11.85;;;12.70;99.90;;;12.93;98.47;100439.38;5052469;28;20670;-78
2022/12/23 05:44:07;;;;;;;14.05;12.65;;;12.70;99.90;;;12.94;98.46;100433.13;5052702;28;20041;-78
2022/12/23 05:46:37;;;;;;;14.07;12.55;;;12.70;99.90;;;12.96;98.33;100416.28;5052375;28;20505;-78
2022/12/23 05:49:05;;;;;;;16.37;13.87;;;12.70;99.90;;;12.95;98.22;100417.16;5052349;28;20087;-77
2022/12/23 05:51:34;;;;;;;14.48;12.40;;;12.70;99.90;;;12.94;98.22;100415.44;5051313;28;20041;-78
2022/12/23 05:54:02;;;;;;;17.88;14.30;;;12.70;99.90;;;12.95;98.22;100414.50;5052495;28;20053;-78
2022/12/23 05:56:30;;;;;;;14.93;13.32;;;12.70;99.90;;;12.92;97.99;100405.75;5052090;28;20052;-78
2022/12/23 05:58:59;;;;;;;15.65;13.48;;;12.70;99.90;;;12.91;98.02;100398.69;5052549;28;20072;-78
2022/12/23 06:01:27;;;;;;;15.20;13.07;;;12.70;99.90;;;12.70;97.95;100373.47;5052781;28;20044;-78
2022/12/23 06:03:57;;;;;;;18.00;14.05;;;12.70;99.90;;;12.85;97.80;100399.72;5052516;28;20040;-78
2022/12/23 06:06:26;;;;;;;21.47;15.07;;;12.60;99.90;;;12.80;98.39;100390.06;5052412;28;20098;-77
2022/12/23 06:08:54;;;;;;;20.80;15.43;;;12.60;99.90;;;12.29;98.44;100304.50;5052077;28;20849;-78
2022/12/23 06:11:27;;;;;;;20.83;16.35;;;12.60;99.90;;;12.80;98.17;100374.16;5052629;28;20098;-78
2022/12/23 06:13:56;;;;;;;21.52;16.23;;;12.60;99.90;;;12.85;98.30;100390.88;5052118;28;20075;-78
2022/12/23 06:16:24;;;;;;;22.33;16.67;;;12.60;99.90;;;12.69;98.05;100377.03;5052248;28;20052;-78
2022/12/23 06:18:56;;;;;;;20.98;15.93;;;12.60;99.90;;;12.82;98.03;100417.44;5050947;28;20077;-77
2022/12/23 06:21:25;;;;;;;22.80;17.38;;;12.60;99.90;;;12.81;98.19;100413.06;5052092;28;20045;-79
2022/12/23 06:23:53;;;;;;;25.08;17.60;;;12.60;99.90;;;12.80;98.24;100414.84;5052308;28;20037;-79
2022/12/23 06:26:22;;;;;;;21.27;16.98;;;12.60;99.90;;;12.78;98.02;100414.00;5050872;28;20131;-79
2022/12/23 06:28:50;;;;;;;24.38;18.30;;;12.60;99.90;;;12.87;98.17;100427.09;5052592;28;20075;-79
2022/12/23 06:31:19;;;;;;;25.38;18.17;;;12.60;99.90;;;12.88;97.94;100430.59;5055471;28;20049;-79
2022/12/23 06:33:47;;;;;;;23.02;18.77;;;12.60;99.90;;;12.86;97.99;100425.34;5055941;28;20120;-78
2022/12/23 06:36:17;;;;;;;25.15;18.52;;;12.60;99.90;;;12.85;98.05;100425.38;5056127;28;20491;-79
2022/12/23 06:38:46;;;;;;;26.52;19.75;;;12.60;99.90;;;12.86;97.90;100432.41;5056779;28;20051;-78
2022/12/23 06:41:14;;;;;;;27.58;21.50;;;12.60;99.90;;;12.84;97.83;100429.78;5056178;28;20409;-79
2022/12/23 06:43:42;;;;;;;29.67;19.88;;;12.60;99.90;;;12.20;97.80;100318.81;5055991;28;20049;-79
2022/12/23 06:46:11;;;;;;;27.85;20.75;;;12.60;99.90;;;12.82;97.92;100415.69;5055936;28;20052;-79
2022/12/23 06:48:39;;;;;;;28.40;21.77;;;12.60;99.90;;;12.87;97.58;100415.59;5055758;28;20556;-79
2022/12/23 06:51:09;;;;;;;30.02;21.70;;;12.60;99.90;;;12.84;97.46;100426.25;5055524;28;20152;-79
2022/12/23 06:53:39;;;;;;;29.40;21.40;;;12.60;99.90;;;12.78;97.75;100435.22;5055591;28;20045;-79
2022/12/23 06:56:08;;;;;;;31.43;21.20;;;12.60;99.90;;;12.67;97.63;100418.66;5055241;28;20126;-79
2022/12/23 06:58:37;;;;;;;29.42;20.75;;;12.50;99.90;;;12.68;97.77;100429.22;5055414;28;20091;-78
2022/12/23 07:01:05;;;;;;;31.30;21.88;;;12.50;99.90;;;12.62;97.86;100426.69;5070809;28;20422;-76
2022/12/23 07:03:34;;;;;;;30.60;21.92;;;12.50;99.90;;;12.72;97.83;100464.53;5055691;28;20132;-78
2022/12/23 07:06:02;;;;;;;33.63;22.83;;;12.50;99.90;;;12.73;97.92;100452.16;5054344;28;20049;-78
2022/12/23 07:08:31;;;;;;;31.55;22.75;;;12.50;99.90;;;12.76;98.24;100454.72;5055435;28;20044;-78
2022/12/23 07:11:03;;;;;;;34.85;23.80;;;12.50;99.90;;;12.79;97.95;100444.06;5055327;28;20521;-79
2022/12/23 07:13:33;;;;;;;34.38;22.83;;;12.50;99.90;;;12.76;98.04;100436.16;5055387;28;20068;-78
2022/12/23 07:16:07;;;;;;;34.40;23.75;;;12.50;99.90;;;12.78;98.06;100437.88;5055136;28;20040;-79
2022/12/23 07:18:36;;;;;;;32.08;23.25;;;12.50;99.90;;;12.71;97.75;100428.31;5055515;28;20044;-79
2022/12/23 07:21:05;;;;;;;32.72;21.25;;;12.50;99.90;;;12.75;97.87;100426.47;5055171;28;20126;-79
2022/12/23 07:23:45;;;;;;;27.67;19.85;;;12.50;99.90;;;12.76;97.84;100434.38;5054210;28;20044;-78
2022/12/23 07:26:16;;;;;;;31.05;20.63;;;12.50;99.90;;;12.75;97.86;100422.03;5055078;28;20041;-78
2022/12/23 07:28:45;;;;;;;25.43;17.47;;;12.50;99.90;;;12.72;97.65;100423.88;5054987;28;20049;-79
2022/12/23 07:31:13;;;;;;;26.38;17.13;;;12.50;99.90;;;12.64;98.13;100426.66;5055061;28;20045;-79
2022/12/23 07:33:42;;;;;;;22.23;16.23;;;12.50;99.90;;;12.72;98.01;100432.69;5055114;28;20099;-78
2022/12/23 07:36:10;;;;;;;23.63;17.52;;;12.50;99.90;;;12.72;98.01;100434.50;5055000;28;20483;-79
2022/12/23 07:38:39;;;;;;;26.30;17.00;;;12.40;99.90;;;12.65;98.31;100428.44;5054991;28;20120;-79
2022/12/23 07:41:07;;;;;;;25.05;17.55;;;12.40;99.90;;;12.66;98.32;100436.34;5053989;28;20569;-79
2022/12/23 07:43:37;;;;;;;24.58;17.88;;;12.40;99.90;;;12.62;98.48;100431.13;5054724;28;20072;-75
2022/12/23 07:46:09;;;;;;;22.10;16.67;;;12.40;99.90;;;12.62;98.63;100426.69;5055205;28;20067;-77
2022/12/23 07:48:39;;;;;;;19.48;16.00;;;12.40;99.90;;;12.63;98.65;100420.50;5054719;28;20116;-77
2022/12/23 07:51:08;;;;;;;19.38;15.07;;;12.40;99.90;;;12.65;98.61;100412.50;5055249;28;20052;-77
2022/12/23 07:53:36;;;;;;;20.40;15.35;;;12.40;99.90;;;12.70;98.59;100418.56;5054882;28;20075;-78
2022/12/23 07:56:07;;;;;;;19.25;15.02;;;12.40;99.90;;;12.67;98.54;100405.38;5054301;28;20080;-77
2022/12/23 07:58:36;;;;;;;17.00;14.15;;;12.40;99.90;;;12.69;98.45;100406.22;5055160;28;20041;-80
2022/12/23 08:01:07;;;;;;;16.25;13.95;;;12.40;99.90;;;12.58;98.30;100381.72;5054522;28;20041;-82
2022/12/23 08:03:37;;;;;;;18.73;15.30;;;12.50;99.90;;;12.63;98.30;100383.34;5053466;28;20053;-84
2022/12/23 08:06:11;;;;;;;18.67;14.60;;;12.50;99.90;;;12.68;98.23;100399.16;5070070;28;20383;-84
2022/12/23 08:08:40;;;;;;;17.73;14.35;;;12.50;99.90;;;12.14;98.24;100318.03;5054624;28;20088;-84
2022/12/23 08:11:11;;;;;;;17.50;14.52;;;12.50;99.90;;;12.47;97.97;100366.00;5054815;28;20045;-83
2022/12/23 08:13:44;;;;;;;19.25;15.95;;;12.50;99.90;;;12.71;98.18;100391.16;5054653;28;20120;-83
2022/12/23 08:16:13;;;;;;;19.58;15.25;;;12.50;99.90;;;12.56;97.99;100375.56;5054479;28;20037;-83
2022/12/23 08:18:42;;;;;;;19.77;15.35;;;12.40;99.90;;;12.65;98.04;100394.81;5054509;28;20049;-85
2022/12/23 08:21:14;;;;;;;18.33;13.90;;;12.40;99.90;;;12.52;97.85;100373.88;5054341;28;20076;-79
2022/12/23 08:23:43;;;;;;;15.20;13.45;;;12.40;99.90;;;12.45;98.34;100377.53;5054027;28;20124;-80
2022/12/23 08:26:14;;;;;;;14.48;12.65;;;12.30;99.90;;;12.45;98.40;100378.41;5054091;28;20036;-85
2022/12/23 08:28:45;;;;;;;14.88;12.50;;;12.20;99.90;;;9.67;98.34;99968.72;5054084;28;20130;-86
2022/12/23 08:31:18;;;;;;;15.20;13.20;;;12.20;99.90;;;11.96;98.59;100299.88;5053923;28;20083;-85
2022/12/23 08:33:49;;;;;;;14.85;12.77;;;12.20;99.90;;;12.37;98.93;100367.06;5054050;28;20053;-83
2022/12/23 08:36:22;;;;;;;;;;;12.20;99.90;;;12.35;99.05;100360.06;5054428;28;20083;-79
2022/12/23 08:38:53;;;;;;;14.93;12.80;;;12.20;99.90;;;12.23;99.22;100357.66;5052828;28;19975;-77
2022/12/23 08:41:25;;;;;;;17.98;14.23;;;12.10;99.90;;;11.97;99.75;100330.75;5053869;28;20411;-75
2022/12/23 08:43:55;;;;;;;15.43;13.80;;;12.10;99.90;;;12.21;100.00;100364.75;5069312;28;20445;-74
2022/12/23 08:46:25;;;;;;;16.55;14.15;;;12.10;99.90;;;12.08;99.93;100355.31;5053542;28;20052;-74
2022/12/23 08:48:54;;;;;;;18.77;14.73;;;12.00;99.90;;;11.89;100.00;100343.25;5052345;28;20080;-74
2022/12/23 08:51:24;;;;;;;17.90;13.68;;;11.90;99.90;;;11.99;100.00;100361.63;5069191;28;20087;-72
2022/12/23 08:53:55;;;;;;;18.02;14.43;;;11.90;99.90;;;11.88;100.00;100338.88;5053820;28;20123;-76
2022/12/23 08:56:31;;;;;;;16.63;13.95;;;11.80;99.90;;;11.80;100.00;100336.38;5068504;28;20061;-76
2022/12/23 08:59:02;;;;;;;16.60;13.60;;;11.70;99.90;;;11.67;100.00;100325.09;5053583;28;20384;-74
2022/12/23 09:01:33;;;;;;;15.85;12.65;;;11.70;99.90;;;11.74;100.00;100332.06;5068768;28;20471;-77
2022/12/23 09:04:03;;;;;;;14.98;13.30;;;11.70;99.90;;;11.75;100.00;100338.22;5053422;28;20049;-77
2022/12/23 09:06:36;;;;;;;16.33;13.55;;;11.60;99.90;;;10.90;100.00;100227.56;5052962;28;20045;-76
2022/12/23 09:09:05;;;;;;;18.95;14.63;;;11.30;99.90;;;11.11;100.00;100311.91;5052989;28;20049;-77
2022/12/23 09:11:34;;;;;;;16.55;13.85;;;11.00;99.90;;;11.11;100.00;100321.63;5052973;28;20120;-81
2022/12/23 09:14:05;;;;;;;17.77;13.23;;;10.90;99.90;;;10.96;100.00;100303.31;5051495;28;20072;-82
2022/12/23 09:16:34;;;;;;;14.73;13.13;;;10.90;99.90;;;11.24;100.00;100326.72;5053118;28;20059;-83
2022/12/23 09:19:03;;;;;;;15.27;13.07;;;10.90;99.90;;;11.39;100.00;100320.28;5053330;28;20501;-84
2022/12/23 09:21:31;;;;;;;21.05;15.07;;;11.10;99.90;;;11.24;100.00;100323.19;5051740;28;20049;-88
2022/12/23 09:24:00;;;;;;;16.92;14.32;;;11.00;99.90;;;11.19;100.00;100282.69;5052056;28;20505;-89
2022/12/23 09:26:30;;;;;;;19.80;14.93;;;11.00;99.90;;;10.96;100.00;100216.88;5051412;28;20049;-77
2022/12/23 09:28:59;;;;;;;17.63;14.18;;;11.20;99.90;;;11.42;100.00;100299.91;5052653;28;20487;-79
2022/12/23 09:31:29;;;;;;;22.63;16.48;;;11.20;99.90;;;11.13;100.00;100274.84;5052998;28;20029;-81
2022/12/23 09:34:05;;;;;;;21.75;15.93;;;11.00;99.90;;;11.07;100.00;100283.72;5052639;28;20119;-80
2022/12/23 09:36:34;;;;;;;20.55;15.95;;;10.80;99.90;;;11.07;100.00;100285.53;5052741;28;20049;-76
2022/12/23 09:39:02;;;;;;;21.02;15.65;;;10.80;99.90;;;11.27;100.00;100273.69;5053342;28;20052;-78
2022/12/23 09:41:47;;;;;;;24.58;16.92;;;11.00;99.90;;;11.43;100.00;100274.31;5052938;28;20048;-77
2022/12/23 09:44:40;;;;;;;27.42;18.67;;;11.10;99.90;;;11.46;100.00;100274.25;5052686;28;20095;-76
2022/12/23 09:47:15;;;;;;;37.08;21.27;;;11.20;99.90;;;11.39;100.00;100265.56;5052849;28;20045;-74
2022/12/23 09:49:49;;;;;;;51.78;25.38;;;11.30;99.90;;;11.55;100.00;100285.59;5052412;28;20124;-75
2022/12/23 09:52:25;;;;;;;59.67;28.15;;;11.40;99.90;;;11.61;100.00;100287.25;5052391;28;20398;-74
2022/12/23 09:54:56;;;;;;;59.75;28.30;;;11.50;99.90;;;11.49;100.00;100245.97;5052864;28;20053;-75
2022/12/23 09:57:34;;;;;;;68.15;29.02;;;11.50;99.90;;;11.54;100.00;100272.34;5052195;28;20056;-75
2022/12/23 10:00:13;;;;;;;60.92;29.02;;;11.50;99.90;;;11.44;100.00;100268.13;5052316;28;20500;-75
2022/12/23 10:03:04;;;;;;;67.05;30.52;;;11.40;99.90;;;11.27;100.00;100259.59;5052714;28;20043;-74
2022/12/23 10:05:47;;;;;;;65.93;28.08;;;11.30;99.90;;;11.22;100.00;100249.09;5051602;28;20148;-74
2022/12/23 10:08:24;;;;;;;71.55;30.60;;;11.20;99.90;;;11.00;100.00;100263.56;5052186;28;20045;-73
2022/12/23 10:10:59;;;;;;;81.97;32.72;;;10.90;99.90;;;11.01;100.00;100252.09;5052494;28;20127;-74
2022/12/23 10:13:34;;;;;;;74.30;33.28;;;10.90;99.90;;;10.92;100.00;100233.69;5052470;28;20505;-75
2022/12/23 10:16:08;;;;;;;76.05;31.75;;;11.00;99.90;;;11.22;100.00;100264.09;5052401;28;20051;-74
2022/12/23 10:18:51;;;;;;;73.30;33.80;;;11.10;99.90;;;11.10;100.00;100259.88;5052074;28;20540;-75
2022/12/23 10:21:27;;;;;;;78.07;33.72;;;11.00;99.90;;;10.48;100.00;100140.97;5052363;28;20406;-72
2022/12/23 10:23:56;;;;;;;80.18;35.25;;;11.00;99.90;;;11.19;100.00;100243.84;5051140;28;20053;-74
2022/12/23 10:26:31;;;;;;;78.57;35.92;;;11.10;99.90;;;11.25;100.00;100261.38;5050948;28;20390;-74
2022/12/23 10:29:10;;;;;;;84.47;36.58;;;11.10;99.90;;;11.30;100.00;100246.31;5052366;28;20049;-77
2022/12/23 10:32:02;;;;;;;78.97;35.50;;;11.10;99.90;;;11.30;100.00;100241.91;5051003;28;20053;-77
2022/12/23 10:34:44;;;;;;;83.30;36.75;;;11.20;99.90;;;11.26;100.00;100234.91;5052037;28;20102;-77
2022/12/23 10:37:20;;;;;;;82.38;36.30;;;11.20;99.90;;;11.20;100.00;100235.00;5052477;28;20091;-77
2022/12/23 10:40:02;;;;;;;79.40;37.92;;;11.10;99.90;;;10.57;100.00;100112.63;5052111;28;20045;-77
2022/12/23 10:42:37;;;;;;;80.03;37.10;;;11.20;99.90;;;11.25;100.00;100222.56;5050862;28;20102;-76